createdAt,value
2017-09-21T00:01:20.912Z,21.50
2017-09-21T00:03:49.731Z,23.07
2017-09-21T00:06:18.139Z,22.30
2017-09-21T00:08:46.563Z,21.67
2017-09-21T00:11:15.132Z,23.73
2017-09-21T00:13:43.501Z,24.77
2017-09-21T00:16:11.887Z,24.77
2017-09-21T00:18:40.690Z,25.37
2017-09-21T00:21:09.079Z,22.80
2017-09-21T00:23:38.236Z,23.50
2017-09-21T00:26:06.661Z,20.40
2017-09-21T00:28:35.833Z,20.57
2017-09-21T00:31:04.487Z,21.40
2017-09-21T00:33:32.996Z,19.53
2017-09-21T00:36:01.377Z,19.83
2017-09-21T00:38:29.792Z,19.60
2017-09-21T00:40:58.234Z,19.80
2017-09-21T00:43:26.687Z,20.00
2017-09-21T00:45:55.077Z,19.60
2017-09-21T00:48:23.792Z,21.20
2017-09-21T00:50:52.199Z,20.00
2017-09-21T00:53:21.383Z,20.33
2017-09-21T00:55:50.167Z,20.37
2017-09-21T00:58:19.333Z,20.70
2017-09-21T01:00:47.745Z,19.30
2017-09-21T01:03:16.402Z,20.03
2017-09-21T01:05:44.839Z,22.00
2017-09-21T01:08:13.476Z,22.43
2017-09-21T01:10:42.089Z,21.70
2017-09-21T01:13:10.506Z,21.73
2017-09-21T01:15:38.892Z,24.87
2017-09-21T01:18:07.477Z,24.20
2017-09-21T01:20:35.956Z,23.20
2017-09-21T01:23:04.383Z,20.53
2017-09-21T01:25:33.990Z,23.00
2017-09-21T01:28:03.177Z,24.67
2017-09-21T01:30:31.646Z,22.53
2017-09-21T01:33:00.672Z,29.70
2017-09-21T01:35:29.864Z,28.30
2017-09-21T01:37:59.060Z,31.83
2017-09-21T01:40:28.310Z,36.47
2017-09-21T01:42:56.752Z,36.97
2017-09-21T01:45:25.236Z,38.50
2017-09-21T01:47:54.821Z,40.77
2017-09-21T01:50:24.053Z,40.10
2017-09-21T01:52:52.497Z,35.70
2017-09-21T01:55:21.061Z,38.63
2017-09-21T01:57:49.664Z,38.10
2017-09-21T02:00:18.926Z,46.20
2017-09-21T02:02:47.450Z,43.13
2017-09-21T02:05:16.633Z,44.33
2017-09-21T02:07:45.053Z,44.47
2017-09-21T02:10:13.626Z,40.93
2017-09-21T02:12:42.065Z,38.17
2017-09-21T02:15:10.474Z,45.90
2017-09-21T02:17:39.854Z,45.50
2017-09-21T02:20:09.055Z,37.97
2017-09-21T02:22:38.490Z,39.53
2017-09-21T02:25:06.973Z,45.03
2017-09-21T02:27:35.401Z,42.73
2017-09-21T02:30:03.841Z,42.90
2017-09-21T02:32:32.274Z,42.70
2017-09-21T02:35:00.950Z,41.67
2017-09-21T02:37:29.345Z,36.37
2017-09-21T02:39:58.618Z,39.23
2017-09-21T02:42:27.005Z,40.73
2017-09-21T02:44:55.382Z,36.77
2017-09-21T02:47:24.014Z,41.70
2017-09-21T02:49:53.217Z,33.67
2017-09-21T02:52:21.620Z,40.10
2017-09-21T02:54:50.087Z,38.27
2017-09-21T02:57:18.511Z,35.90
2017-09-21T02:59:46.920Z,38.60
2017-09-21T03:02:16.618Z,36.33
2017-09-21T03:04:45.769Z,36.20
2017-09-21T03:07:14.192Z,38.00
2017-09-21T03:09:42.619Z,35.93
2017-09-21T03:12:11.323Z,35.13
2017-09-21T03:14:39.722Z,39.00
2017-09-21T03:17:08.352Z,39.20
2017-09-21T03:19:36.731Z,40.23
2017-09-21T03:22:05.123Z,39.37
2017-09-21T03:24:33.680Z,35.40
2017-09-21T03:27:02.823Z,32.03
2017-09-21T03:29:31.199Z,35.20
2017-09-21T03:31:59.614Z,37.43
2017-09-21T03:34:27.991Z,35.83
2017-09-21T03:36:56.647Z,37.60
2017-09-21T03:39:26.178Z,37.83
2017-09-21T03:41:54.643Z,38.07
2017-09-21T03:44:23.012Z,36.57
2017-09-21T03:46:51.443Z,40.23
2017-09-21T03:49:20.611Z,35.43
2017-09-21T03:51:48.996Z,36.67
2017-09-21T03:54:17.603Z,37.30
2017-09-21T03:56:45.991Z,36.00
2017-09-21T03:59:15.140Z,35.17
2017-09-21T04:01:43.792Z,36.60
2017-09-21T04:04:12.167Z,35.20
2017-09-21T04:06:40.652Z,32.50
2017-09-21T04:09:09.165Z,37.67
2017-09-21T04:11:37.561Z,38.47
2017-09-21T04:14:05.997Z,38.07
2017-09-21T04:16:36.232Z,39.13
2017-09-21T04:19:05.336Z,36.73
2017-09-21T04:21:34.665Z,30.93
2017-09-21T04:24:04.246Z,23.50
2017-09-21T04:26:34.214Z,24.00
2017-09-21T04:29:03.387Z,28.03
2017-09-21T04:31:32.719Z,25.17
2017-09-21T04:34:01.128Z,26.70
2017-09-21T04:36:29.928Z,25.73
2017-09-21T04:38:58.730Z,26.33
2017-09-21T04:41:27.265Z,23.40
2017-09-21T04:43:55.648Z,24.00
2017-09-21T04:46:24.141Z,23.93
2017-09-21T04:48:52.532Z,29.13
2017-09-21T04:51:21.582Z,23.67
2017-09-21T04:53:50.055Z,27.53
2017-09-21T04:56:18.502Z,26.30
2017-09-21T04:58:46.924Z,29.93
2017-09-21T05:01:16.169Z,27.77
2017-09-21T05:03:44.688Z,26.90
2017-09-21T05:06:13.951Z,28.63
2017-09-21T05:08:42.571Z,26.87
2017-09-21T05:11:11.705Z,28.13
2017-09-21T05:13:40.155Z,24.50
2017-09-21T05:16:09.494Z,28.20
2017-09-21T05:18:37.869Z,27.67
2017-09-21T05:21:06.358Z,28.23
2017-09-21T05:23:34.962Z,22.90
2017-09-21T05:26:03.383Z,25.40
2017-09-21T05:28:32.582Z,24.50
2017-09-21T05:31:02.648Z,26.63
2017-09-21T05:33:31.446Z,21.60
2017-09-21T05:35:59.876Z,23.20
2017-09-21T05:38:28.452Z,25.07
2017-09-21T05:40:57.614Z,26.17
2017-09-21T05:43:26.043Z,24.27
2017-09-21T05:45:54.698Z,25.57
2017-09-21T05:48:23.114Z,27.70
2017-09-21T05:50:51.618Z,23.97
2017-09-21T05:53:20.215Z,32.00
2017-09-21T05:55:48.599Z,24.63
2017-09-21T05:58:16.998Z,27.57
2017-09-21T06:00:45.561Z,25.37
2017-09-21T06:03:13.949Z,24.83
2017-09-21T06:05:42.460Z,27.47
2017-09-21T06:08:11.698Z,23.57
2017-09-21T06:10:40.078Z,21.63
2017-09-21T06:13:09.430Z,22.73
2017-09-21T06:15:38.411Z,21.80
2017-09-21T06:18:07.618Z,22.97
2017-09-21T06:20:36.771Z,26.80
2017-09-21T06:23:05.231Z,28.33
2017-09-21T06:25:33.656Z,24.50
2017-09-21T06:28:02.291Z,24.90
2017-09-21T06:30:31.623Z,24.53
2017-09-21T06:33:00.143Z,28.67
2017-09-21T06:35:29.288Z,28.23
2017-09-21T06:37:58.117Z,29.10
2017-09-21T06:40:27.292Z,26.90
2017-09-21T06:42:56.144Z,22.20
2017-09-21T06:45:24.883Z,22.97
2017-09-21T06:47:53.363Z,25.33
2017-09-21T06:50:22.492Z,24.80
2017-09-21T06:52:51.029Z,21.70
2017-09-21T06:55:19.530Z,24.73
2017-09-21T06:57:48.001Z,27.60
2017-09-21T07:00:16.873Z,28.70
2017-09-21T07:02:45.301Z,23.27
2017-09-21T07:05:14.548Z,23.37
2017-09-21T07:07:43.100Z,24.33
2017-09-21T07:10:11.536Z,22.33
2017-09-21T07:12:40.015Z,24.90
2017-09-21T07:15:09.145Z,25.90
2017-09-21T07:17:37.563Z,25.77
2017-09-21T07:20:06.440Z,26.47
2017-09-21T07:22:36.019Z,27.27
2017-09-21T07:25:05.245Z,25.20
2017-09-21T07:27:36.895Z,21.60
2017-09-21T07:30:05.351Z,25.03
2017-09-21T07:32:34.648Z,22.37
2017-09-21T07:35:04.074Z,25.37
2017-09-21T07:37:32.474Z,25.10
2017-09-21T07:40:00.933Z,29.20
2017-09-21T07:42:29.570Z,23.47
2017-09-21T07:44:58.433Z,22.17
2017-09-21T07:47:26.864Z,25.10
2017-09-21T07:49:55.479Z,32.23
2017-09-21T07:52:23.992Z,26.70
2017-09-21T07:54:52.479Z,24.33
2017-09-21T07:57:21.122Z,24.10
2017-09-21T07:59:50.098Z,27.93
2017-09-21T08:02:19.482Z,30.40
2017-09-21T08:04:47.986Z,31.70
2017-09-21T08:07:16.384Z,28.60
2017-09-21T08:09:45.021Z,28.47
2017-09-21T08:12:13.518Z,28.73
2017-09-21T08:14:42.770Z,30.70
2017-09-21T08:17:11.184Z,27.97
2017-09-21T08:19:39.643Z,31.00
2017-09-21T08:22:08.121Z,29.37
2017-09-21T08:24:36.559Z,31.37
2017-09-21T08:27:05.207Z,32.17
2017-09-21T08:29:34.402Z,30.67
2017-09-21T08:32:02.836Z,31.07
2017-09-21T08:34:31.503Z,31.73
2017-09-21T08:36:59.918Z,31.67
2017-09-21T08:39:28.320Z,32.27
2017-09-21T08:41:56.911Z,33.67
2017-09-21T08:44:25.339Z,31.03
2017-09-21T08:46:54.915Z,32.90
2017-09-21T08:49:24.268Z,32.47
2017-09-21T08:51:52.736Z,37.83
2017-09-21T08:54:21.166Z,36.57
2017-09-21T08:56:49.760Z,31.40
2017-09-21T08:59:19.272Z,34.17
2017-09-21T09:01:50.077Z,29.70
2017-09-21T09:04:19.744Z,35.60
2017-09-21T09:06:48.254Z,29.40
2017-09-21T09:09:19.527Z,29.00
2017-09-21T09:11:48.789Z,30.13
2017-09-21T09:14:18.181Z,30.23
2017-09-21T09:16:47.390Z,28.40
2017-09-21T09:19:15.861Z,29.67
2017-09-21T09:21:44.970Z,30.43
2017-09-21T09:24:15.130Z,30.77
2017-09-21T09:26:44.463Z,33.53
2017-09-21T09:29:13.163Z,31.10
2017-09-21T09:31:41.634Z,33.77
2017-09-21T09:34:10.898Z,29.83
2017-09-21T09:36:40.270Z,32.90
2017-09-21T09:39:08.684Z,35.00
2017-09-21T09:41:37.908Z,30.10
2017-09-21T09:44:06.523Z,31.30
2017-09-21T09:46:35.110Z,34.43
2017-09-21T09:49:04.029Z,29.77
2017-09-21T09:51:33.231Z,29.10
2017-09-21T09:54:02.408Z,31.07
2017-09-21T09:56:31.013Z,32.23
2017-09-21T09:59:01.767Z,31.53
2017-09-21T10:01:30.231Z,29.80
2017-09-21T10:03:59.623Z,32.63
2017-09-21T10:06:28.812Z,27.83
2017-09-21T10:08:57.212Z,31.00
2017-09-21T10:11:27.310Z,27.80
2017-09-21T10:13:55.797Z,28.80
2017-09-21T10:16:25.127Z,28.70
2017-09-21T10:18:53.623Z,27.53
2017-09-21T10:21:22.082Z,26.90
2017-09-21T10:23:51.349Z,25.10
2017-09-21T10:26:19.803Z,22.67
2017-09-21T10:28:48.324Z,24.60
2017-09-21T10:31:17.619Z,27.40
2017-09-21T10:33:46.681Z,26.27
2017-09-21T10:36:15.819Z,23.23
2017-09-21T10:38:44.969Z,26.10
2017-09-21T10:41:20.315Z,24.57
2017-09-21T10:43:49.430Z,28.40
2017-09-21T10:46:18.750Z,29.57
2017-09-21T10:48:47.399Z,27.23
2017-09-21T10:51:16.168Z,27.67
2017-09-21T10:53:45.348Z,26.43
2017-09-21T10:56:13.828Z,26.67
2017-09-21T10:58:43.054Z,28.13
2017-09-21T11:01:11.588Z,20.67
2017-09-21T11:03:40.812Z,25.50
2017-09-21T11:06:09.293Z,24.90
2017-09-21T11:08:38.697Z,24.20
2017-09-21T11:11:08.564Z,23.90
2017-09-21T11:13:38.285Z,27.47
2017-09-21T11:16:07.403Z,24.53
2017-09-21T11:18:36.650Z,27.50
2017-09-21T11:21:05.994Z,25.97
2017-09-21T11:23:34.432Z,24.33
2017-09-21T11:26:02.967Z,22.50
2017-09-21T11:28:31.501Z,21.17
2017-09-21T11:30:59.962Z,22.73
2017-09-21T11:33:28.478Z,21.87
2017-09-21T11:35:57.049Z,20.47
2017-09-21T11:38:26.177Z,22.83
2017-09-21T11:40:54.718Z,20.87
2017-09-21T11:43:23.103Z,18.40
2017-09-21T11:45:52.260Z,21.20
2017-09-21T11:48:22.542Z,19.07
2017-09-21T11:50:51.975Z,20.40
2017-09-21T11:53:20.714Z,19.13
2017-09-21T11:55:49.317Z,19.47
2017-09-21T11:58:19.580Z,17.00
2017-09-21T12:00:49.265Z,16.17
2017-09-21T12:03:18.086Z,18.67
2017-09-21T12:05:46.616Z,15.90
2017-09-21T12:08:15.055Z,17.87
2017-09-21T12:10:43.585Z,17.97
2017-09-21T12:13:13.013Z,17.47
2017-09-21T12:15:42.365Z,18.13
2017-09-21T12:18:11.384Z,16.43
2017-09-21T12:20:40.585Z,18.07
2017-09-21T12:23:09.777Z,18.07
2017-09-21T12:25:38.581Z,17.13
2017-09-21T12:28:08.038Z,18.77
2017-09-21T12:30:36.541Z,17.47
2017-09-21T12:33:05.475Z,14.70
2017-09-21T12:35:33.891Z,16.00
2017-09-21T12:38:03.128Z,17.17
2017-09-21T12:40:37.576Z,13.90
2017-09-21T12:43:05.967Z,15.27
2017-09-21T12:45:35.372Z,14.73
2017-09-21T12:48:04.341Z,14.70
2017-09-21T12:50:34.671Z,13.67
2017-09-21T12:53:03.535Z,15.30
2017-09-21T12:55:32.340Z,14.57
2017-09-21T12:58:00.835Z,16.47
2017-09-21T13:00:29.612Z,12.17
2017-09-21T13:02:59.216Z,11.87
2017-09-21T13:05:29.362Z,9.97
2017-09-21T13:07:57.817Z,10.43
2017-09-21T13:10:28.219Z,11.90
2017-09-21T13:12:57.777Z,11.47
2017-09-21T13:15:26.205Z,9.30
2017-09-21T13:17:56.178Z,10.10
2017-09-21T13:20:24.603Z,8.80
2017-09-21T13:22:54.319Z,9.40
2017-09-21T13:25:26.182Z,8.53
2017-09-21T13:27:56.247Z,10.00
2017-09-21T13:30:24.720Z,9.03
2017-09-21T13:32:54.317Z,9.17
2017-09-21T13:35:23.629Z,7.70
2017-09-21T13:37:54.289Z,8.40
2017-09-21T13:40:25.552Z,10.40
2017-09-21T13:42:54.795Z,8.80
2017-09-21T13:45:23.807Z,9.87
2017-09-21T13:47:53.253Z,10.23
2017-09-21T13:50:21.829Z,7.57
2017-09-21T13:52:50.248Z,9.00
2017-09-21T13:55:18.859Z,10.67
2017-09-21T13:57:47.692Z,9.93
2017-09-21T14:00:16.270Z,9.37
2017-09-21T14:02:45.501Z,7.93
2017-09-21T14:05:15.142Z,8.40
2017-09-21T14:07:44.074Z,8.27
2017-09-21T14:10:13.703Z,8.60
2017-09-21T14:12:42.944Z,8.13
2017-09-21T14:15:13.499Z,9.00
2017-09-21T14:17:42.019Z,8.20
2017-09-21T14:20:10.473Z,8.50
2017-09-21T14:22:40.605Z,8.60
2017-09-21T14:25:09.333Z,8.90
2017-09-21T14:27:37.776Z,9.30
2017-09-21T14:30:07.979Z,10.27
2017-09-21T14:32:36.474Z,9.47
2017-09-21T14:35:05.705Z,7.77
2017-09-21T14:37:34.122Z,7.23
2017-09-21T14:40:02.624Z,7.60
2017-09-21T14:42:31.049Z,7.70
2017-09-21T14:44:59.541Z,6.67
2017-09-21T14:47:28.036Z,7.37
2017-09-21T14:49:57.606Z,8.40
2017-09-21T14:52:26.092Z,8.60
2017-09-21T14:54:54.879Z,8.53
2017-09-21T14:57:23.309Z,8.40
2017-09-21T14:59:52.148Z,7.63
2017-09-21T15:02:21.440Z,7.20
2017-09-21T15:04:50.765Z,6.50
2017-09-21T15:07:19.945Z,6.77
2017-09-21T15:09:49.614Z,7.30
2017-09-21T15:12:18.834Z,6.20
2017-09-21T15:14:51.262Z,6.27
2017-09-21T15:17:19.732Z,6.30
2017-09-21T15:19:48.171Z,5.53
2017-09-21T15:22:17.558Z,5.23
2017-09-21T15:24:46.792Z,5.43
2017-09-21T15:27:15.211Z,5.60
2017-09-21T15:29:43.841Z,4.77
2017-09-21T15:32:12.238Z,4.00
2017-09-21T15:34:40.854Z,3.80
2017-09-21T15:37:09.668Z,3.30
2017-09-21T15:39:38.101Z,3.00
2017-09-21T15:42:06.513Z,2.97
2017-09-21T15:44:35.333Z,2.90
2017-09-21T15:47:03.729Z,3.60
2017-09-21T15:49:32.155Z,3.83
2017-09-21T15:52:00.939Z,3.03
2017-09-21T15:54:31.096Z,3.53
2017-09-21T15:57:00.281Z,3.33
2017-09-21T15:59:28.836Z,2.97
2017-09-21T16:01:57.928Z,3.07
2017-09-21T16:04:26.374Z,2.50
2017-09-21T16:06:55.733Z,3.10
2017-09-21T16:09:24.126Z,3.43
2017-09-21T16:11:53.350Z,3.87
2017-09-21T16:14:21.960Z,4.30
2017-09-21T16:16:50.539Z,3.77
2017-09-21T16:19:19.013Z,3.53
2017-09-21T16:21:47.635Z,3.90
2017-09-21T16:24:16.095Z,3.70
2017-09-21T16:26:44.517Z,3.57
2017-09-21T16:29:13.955Z,3.77
2017-09-21T16:31:45.056Z,3.70
2017-09-21T16:34:13.544Z,4.73
2017-09-21T16:36:43.775Z,5.20
2017-09-21T16:39:12.185Z,5.50
2017-09-21T16:41:42.724Z,5.10
2017-09-21T16:44:11.359Z,5.20
2017-09-21T16:46:40.571Z,5.80
2017-09-21T16:49:08.982Z,5.07
2017-09-21T16:51:37.496Z,5.47
2017-09-21T16:54:05.920Z,78.53
2017-09-21T16:56:34.325Z,4.37
2017-09-21T16:59:03.822Z,4.20
2017-09-21T17:01:32.289Z,4.87
2017-09-21T17:04:01.216Z,3.90
2017-09-21T17:06:29.744Z,5.13
2017-09-21T17:08:58.177Z,4.20
2017-09-21T17:11:26.583Z,4.17
2017-09-21T17:13:55.293Z,4.50
2017-09-21T17:16:23.873Z,4.30
2017-09-21T17:18:53.101Z,4.50
2017-09-21T17:21:26.383Z,4.90
2017-09-21T17:23:56.285Z,5.20
2017-09-21T17:26:24.681Z,4.97
2017-09-21T17:28:53.137Z,4.87
2017-09-21T17:31:22.326Z,5.43
2017-09-21T17:33:51.474Z,4.67
2017-09-21T17:36:20.741Z,4.80
2017-09-21T17:38:50.116Z,4.67
2017-09-21T17:41:20.075Z,3.93
2017-09-21T17:43:48.675Z,4.60
2017-09-21T17:46:17.079Z,5.50
2017-09-21T17:48:45.444Z,5.30
2017-09-21T17:51:14.926Z,5.43
2017-09-21T17:53:43.525Z,5.40
2017-09-21T17:56:11.912Z,5.30
2017-09-21T17:58:40.336Z,7.17
2017-09-21T18:01:09.541Z,5.73
2017-09-21T18:03:38.050Z,6.30
2017-09-21T18:06:07.086Z,5.80
2017-09-21T18:08:36.365Z,5.83
2017-09-21T18:11:04.743Z,5.50
2017-09-21T18:13:33.358Z,6.50
2017-09-21T18:16:02.774Z,6.13
2017-09-21T18:18:33.068Z,6.30
2017-09-21T18:21:02.463Z,6.30
2017-09-21T18:23:31.806Z,7.00
2017-09-21T18:26:00.996Z,6.87
2017-09-21T18:28:30.330Z,8.90
2017-09-21T18:30:58.791Z,8.70
2017-09-21T18:33:27.182Z,9.57
2017-09-21T18:35:55.920Z,11.00
2017-09-21T18:38:24.321Z,12.67
2017-09-21T18:40:52.751Z,11.20
2017-09-21T18:43:21.697Z,10.40
2017-09-21T18:45:50.087Z,8.57
2017-09-21T18:48:18.474Z,8.07
2017-09-21T18:50:46.876Z,6.63
2017-09-21T18:53:15.321Z,7.53
2017-09-21T18:55:44.553Z,6.77
2017-09-21T18:58:15.346Z,6.40
2017-09-21T19:00:44.262Z,6.07
2017-09-21T19:03:12.644Z,6.53
2017-09-21T19:05:41.513Z,6.53
2017-09-21T19:08:10.282Z,6.77
2017-09-21T19:10:39.449Z,6.13
2017-09-21T19:13:07.973Z,6.70
2017-09-21T19:15:37.136Z,8.10
2017-09-21T19:18:06.362Z,7.00
2017-09-21T19:20:35.678Z,6.77
2017-09-21T19:23:04.807Z,5.90
2017-09-21T19:25:33.223Z,6.87
2017-09-21T19:28:01.662Z,6.63
2017-09-21T19:30:30.100Z,6.13
2017-09-21T19:32:59.379Z,6.50
2017-09-21T19:35:27.871Z,7.83
2017-09-21T19:37:56.315Z,6.37
2017-09-21T19:40:24.805Z,6.27
2017-09-21T19:42:53.381Z,6.47
2017-09-21T19:45:21.788Z,6.03
2017-09-21T19:47:50.923Z,7.30
2017-09-21T19:50:19.347Z,7.33
2017-09-21T19:52:47.731Z,6.83
2017-09-21T19:55:16.112Z,6.20
2017-09-21T19:57:44.903Z,7.13
2017-09-21T20:00:13.318Z,8.27
2017-09-21T20:02:41.700Z,10.10
2017-09-21T20:05:10.208Z,7.50
2017-09-21T20:07:38.613Z,8.90
2017-09-21T20:10:07.310Z,7.60
2017-09-21T20:12:35.939Z,8.87
2017-09-21T20:15:05.040Z,8.80
2017-09-21T20:17:33.434Z,8.60
2017-09-21T20:20:01.981Z,7.70
2017-09-21T20:22:30.659Z,8.17
2017-09-21T20:25:00.831Z,8.33
2017-09-21T20:27:29.395Z,9.93
2017-09-21T20:29:57.813Z,9.60
2017-09-21T20:32:26.292Z,9.50
2017-09-21T20:34:56.300Z,9.60
2017-09-21T20:37:25.502Z,8.43
2017-09-21T20:39:53.895Z,8.33
2017-09-21T20:42:22.884Z,7.90
2017-09-21T20:44:51.322Z,8.30
2017-09-21T20:47:19.755Z,8.37
2017-09-21T20:49:48.235Z,8.30
2017-09-21T20:52:17.386Z,8.63
2017-09-21T20:54:45.764Z,10.40
2017-09-21T20:57:14.291Z,8.87
2017-09-21T20:59:42.686Z,9.20
2017-09-21T21:02:11.861Z,7.00
2017-09-21T21:04:40.269Z,8.80
2017-09-21T21:07:09.417Z,9.03
2017-09-21T21:09:37.782Z,9.67
2017-09-21T21:12:06.547Z,8.53
2017-09-21T21:14:34.915Z,9.30
2017-09-21T21:17:04.199Z,8.77
2017-09-21T21:19:33.577Z,8.80
2017-09-21T21:22:01.940Z,8.00
2017-09-21T21:24:30.353Z,9.30
2017-09-21T21:26:59.150Z,10.17
2017-09-21T21:29:28.317Z,11.10
2017-09-21T21:31:56.665Z,9.53
2017-09-21T21:34:25.204Z,8.63
2017-09-21T21:36:53.980Z,8.57
2017-09-21T21:39:22.383Z,9.93
2017-09-21T21:41:50.968Z,11.50
2017-09-21T21:44:19.350Z,10.87
2017-09-21T21:46:47.717Z,9.30
2017-09-21T21:49:17.071Z,10.17
2017-09-21T21:51:45.444Z,9.30
2017-09-21T21:54:13.832Z,10.90
2017-09-21T21:56:42.291Z,9.80
2017-09-21T21:59:10.655Z,9.03
2017-09-21T22:01:39.369Z,12.30
2017-09-21T22:04:07.917Z,10.53
2017-09-21T22:06:36.311Z,9.90
2017-09-21T22:09:04.738Z,10.70
2017-09-21T22:11:33.424Z,10.00
2017-09-21T22:14:02.097Z,11.00
2017-09-21T22:16:30.490Z,10.13
2017-09-21T22:18:58.899Z,11.40
2017-09-21T22:21:28.064Z,10.87
2017-09-21T22:23:57.260Z,10.20
2017-09-21T22:26:25.863Z,9.80
2017-09-21T22:28:54.260Z,11.67
2017-09-21T22:31:23.400Z,10.87
2017-09-21T22:33:51.919Z,12.23
2017-09-21T22:36:20.316Z,11.80
2017-09-21T22:38:49.510Z,9.80
2017-09-21T22:41:18.668Z,12.20
2017-09-21T22:43:47.027Z,12.23
2017-09-21T22:46:15.387Z,10.57
2017-09-21T22:48:43.835Z,11.40
2017-09-21T22:51:13.281Z,10.70
2017-09-21T22:53:41.763Z,11.10
2017-09-21T22:58:44.693Z,11.53
2017-09-21T23:01:14.114Z,10.60
2017-09-21T23:03:42.510Z,10.90
2017-09-21T23:06:11.650Z,10.70
2017-09-21T23:08:40.079Z,13.20
2017-09-21T23:11:09.213Z,12.50
2017-09-21T23:13:37.669Z,12.63
2017-09-21T23:16:07.177Z,18.00
2017-09-21T23:18:35.559Z,16.03
2017-09-21T23:21:03.940Z,16.40
2017-09-21T23:23:32.569Z,15.37
2017-09-21T23:26:00.930Z,16.53
2017-09-21T23:28:29.291Z,14.87
2017-09-21T23:30:57.810Z,16.03
2017-09-21T23:33:26.181Z,15.87
2017-09-21T23:35:54.558Z,13.87
2017-09-21T23:38:23.074Z,16.27
2017-09-21T23:40:51.461Z,12.10
2017-09-21T23:43:20.593Z,13.07
2017-09-21T23:45:49.032Z,12.10
2017-09-21T23:48:18.148Z,13.87
2017-09-21T23:50:47.295Z,12.67
2017-09-21T23:53:15.865Z,12.90
2017-09-21T23:55:44.231Z,14.30
2017-09-21T23:58:12.601Z,13.30
